Time;durP1;ratioP1;P1;durP2;ratioP2;P2;SDS_P1;SDS_P2;PMS_P1;PMS_P2;Temp;Humidity;BMP_temperature;BMP_pressure;BME280_temperature;BME280_humidity;BME280_pressure;Samples;Min_cycle;Max_cycle;Signal;HPM_P1;HPM_P2
2023/05/14 00:01:45;;;;;;;;;;;12.00;99.90;;;;;;5002232;28;19963;-75
2023/05/14 00:04:18;;;;;;;;;;;11.90;99.90;;;;;;5008436;28;19948;-76
2023/05/14 00:06:48;;;;;;;;;;;12.00;99.90;;;;;;5003945;28;19906;-76
2023/05/14 00:09:13;;;;;;;;;;;12.00;99.90;;;;;;5016969;28;19916;-75
2023/05/14 00:11:49;;;;;;;;;;;12.00;99.90;;;;;;5018770;28;19906;-76
2023/05/14 00:14:19;;;;;;;;;;;11.90;99.90;;;;;;5029074;28;19932;-75
2023/05/14 00:16:45;;;;;;;;;;;11.90;99.90;;;;;;5009800;28;19909;-75
2023/05/14 00:19:11;;;;;;;;;;;11.90;99.90;;;;;;5019153;28;19913;-75
2023/05/14 00:21:36;;;;;;;;;;;11.90;99.90;;;;;;5010669;28;19988;-76
2023/05/14 00:24:04;;;;;;;;;;;11.90;99.90;;;;;;5012366;28;20378;-76
2023/05/14 00:26:30;;;;;;;;;;;11.90;99.90;;;;;;5011427;28;19909;-76
2023/05/14 00:28:58;;;;;;;;;;;11.80;99.90;;;;;;5007521;28;20047;-76
2023/05/14 00:31:25;;;;;;;;;;;11.80;99.90;;;;;;5011915;28;19909;-75
2023/05/14 00:33:55;;;;;;;;;;;11.60;99.90;;;;;;4999727;28;20032;-75
2023/05/14 00:36:21;;;;;;;;;;;11.60;99.90;;;;;;5008619;28;19963;-76
2023/05/14 00:38:52;;;;;;;;;;;11.60;99.90;;;;;;5009801;28;20124;-75
2023/05/14 00:41:17;;;;;;;;;;;11.60;99.90;;;;;;5016758;28;19912;-76
2023/05/14 00:43:43;;;;;;;;;;;11.60;99.90;;;;;;5018488;28;19960;-76
2023/05/14 00:46:08;;;;;;;;;;;11.60;99.90;;;;;;5009267;28;19995;-76
2023/05/14 00:48:34;;;;;;;;;;;11.50;99.90;;;;;;5014190;28;19992;-76
2023/05/14 00:51:00;;;;;;;;;;;11.70;99.90;;;;;;5015952;28;19909;-75
2023/05/14 00:53:31;;;;;;;;;;;11.70;99.90;;;;;;5029055;28;19905;-76
2023/05/14 00:55:58;;;;;;;;;;;11.70;99.90;;;;;;5014283;28;19959;-75
2023/05/14 00:58:24;;;;;;;;;;;11.60;99.90;;;;;;5013211;28;19909;-76
2023/05/14 01:00:50;;;;;;;;;;;11.60;99.90;;;;;;5006722;28;19909;-76
2023/05/14 01:03:16;;;;;;;;;;;11.60;99.90;;;;;;5013956;28;19905;-76
2023/05/14 01:05:51;;;;;;;;;;;11.60;99.90;;;;;;5008209;28;19909;-76
2023/05/14 01:08:36;;;;;;;;;;;11.50;99.90;;;;;;5013473;28;19905;-76
2023/05/14 01:11:16;;;;;;;;;;;11.50;99.90;;;;;;5018050;28;19905;-76
2023/05/14 01:14:00;;;;;;;;;;;11.40;99.90;;;;;;5014950;28;19905;-76
2023/05/14 01:16:28;;;;;;;;;;;11.50;99.90;;;;;;5031618;28;19920;-75
2023/05/14 01:19:00;;;;;;;;;;;11.50;99.90;;;;;;5015895;28;20575;-75
2023/05/14 01:21:36;;;;;;;;;;;11.50;99.90;;;;;;5013889;28;19912;-75
2023/05/14 01:24:02;;;;;;;;;;;11.40;99.90;;;;;;5018130;28;19943;-75
2023/05/14 01:26:30;;;;;;;;;;;11.40;99.90;;;;;;5012940;28;20729;-75
2023/05/14 01:28:59;;;;;;;;;;;11.40;99.90;;;;;;5012946;28;20476;-75
2023/05/14 01:31:30;;;;;;;;;;;11.40;99.90;;;;;;5015065;28;19905;-75
2023/05/14 01:33:57;;;;;;;;;;;11.50;99.90;;;;;;5014677;28;19915;-76
2023/05/14 01:36:22;;;;;;;;;;;11.40;99.90;;;;;;5015190;28;19920;-76
2023/05/14 01:38:48;;;;;;;;;;;11.40;99.90;;;;;;5033346;28;19901;-75
2023/05/14 01:41:14;;;;;;;;;;;11.50;99.90;;;;;;5010176;28;19914;-75
2023/05/14 01:43:40;;;;;;;;;;;11.60;99.90;;;;;;5010498;28;19912;-75
2023/05/14 01:46:08;;;;;;;;;;;11.70;99.90;;;;;;5035705;28;20071;-76
2023/05/14 01:48:36;;;;;;;;;;;11.70;99.90;;;;;;5011662;28;20529;-76
2023/05/14 01:51:14;;;;;;;;;;;11.60;99.90;;;;;;5014458;28;19941;-76
2023/05/14 01:53:48;;;;;;;;;;;11.50;99.90;;;;;;5012879;28;19905;-76
2023/05/14 01:56:17;;;;;;;;;;;11.60;99.90;;;;;;5012293;28;19955;-75
2023/05/14 01:58:43;;;;;;;;;;;11.60;99.90;;;;;;5015289;28;20259;-75
2023/05/14 02:01:09;;;;;;;;;;;11.60;99.90;;;;;;5009329;28;19909;-76
2023/05/14 02:03:37;;;;;;;;;;;11.70;99.90;;;;;;5018621;28;19912;-77
2023/05/14 02:06:04;;;;;;;;;;;11.80;99.90;;;;;;5009116;28;19941;-75
2023/05/14 02:08:30;;;;;;;;;;;11.70;99.90;;;;;;5019418;28;19999;-76
2023/05/14 02:10:55;;;;;;;;;;;11.60;99.90;;;;;;5010659;28;19988;-76
2023/05/14 02:13:22;;;;;;;;;;;11.50;99.90;;;;;;5012170;28;19960;-76
2023/05/14 02:15:52;;;;;;;;;;;11.40;99.90;;;;;;5033161;28;20019;-76
2023/05/14 02:18:18;;;;;;;;;;;11.30;99.90;;;;;;5029667;28;19909;-76
2023/05/14 02:20:46;;;;;;;;;;;11.20;99.90;;;;;;5032214;28;19912;-76
2023/05/14 02:23:11;;;;;;;;;;;11.20;99.90;;;;;;5033405;28;19961;-75
2023/05/14 02:25:43;;;;;;;;;;;11.20;99.90;;;;;;5013139;28;19944;-76
2023/05/14 02:28:09;;;;;;;;;;;11.20;99.90;;;;;;5019744;28;19977;-76
2023/05/14 02:30:35;;;;;;;;;;;11.20;99.90;;;;;;5011127;28;19988;-76
2023/05/14 02:33:01;;;;;;;;;;;11.20;99.90;;;;;;5033484;28;19999;-75
2023/05/14 02:35:26;;;;;;;;;;;11.20;99.90;;;;;;5013275;28;19952;-76
2023/05/14 02:37:54;;;;;;;;;;;11.20;99.90;;;;;;5006545;28;19936;-75
2023/05/14 02:40:21;;;;;;;;;;;11.10;99.90;;;;;;5010691;28;19979;-76
2023/05/14 02:42:57;;;;;;;;;;;11.10;99.90;;;;;;5013655;28;19913;-75
2023/05/14 02:45:29;;;;;;;;;;;11.10;99.90;;;;;;5015114;28;19916;-75
2023/05/14 02:47:55;;;;;;;;;;;11.20;99.90;;;;;;5014349;28;19909;-75
2023/05/14 02:50:20;;;;;;;;;;;11.20;99.90;;;;;;5034229;28;19915;-75
2023/05/14 02:52:48;;;;;;;;;;;11.20;99.90;;;;;;5012280;28;19913;-75
2023/05/14 02:55:18;;;;;;;;;;;11.20;99.90;;;;;;5025809;28;19913;-76
2023/05/14 02:57:46;;;;;;;;;;;11.30;99.90;;;;;;5033940;28;19994;-75
2023/05/14 03:00:12;;;;;;;;;;;11.30;99.90;;;;;;5008841;28;19905;-76
2023/05/14 03:02:43;;;;;;;;;;;11.30;99.90;;;;;;5010891;28;19905;-75
2023/05/14 03:05:09;;;;;;;;;;;11.40;99.90;;;;;;5026576;28;19906;-76
2023/05/14 03:07:34;;;;;;;;;;;11.40;99.90;;;;;;5012599;28;19909;-75
2023/05/14 03:10:07;;;;;;;;;;;11.50;99.90;;;;;;5010969;28;19932;-75
2023/05/14 03:12:33;;;;;;;;;;;11.60;99.90;;;;;;5016256;28;19909;-75
2023/05/14 03:14:59;;;;;;;;;;;11.50;99.90;;;;;;5013583;28;19920;-76
2023/05/14 03:17:28;;;;;;;;;;;11.40;99.90;;;;;;5020273;28;19912;-75
2023/05/14 03:19:54;;;;;;;;;;;11.40;99.90;;;;;;5015830;28;19956;-75
2023/05/14 03:22:21;;;;;;;;;;;11.40;99.90;;;;;;5015800;28;19905;-75
2023/05/14 03:24:47;;;;;;;;;;;11.60;99.90;;;;;;5018600;28;19960;-76
2023/05/14 03:27:15;;;;;;;;;;;11.50;99.90;;;;;;5012339;28;20005;-76
2023/05/14 03:29:44;;;;;;;;;;;11.50;99.90;;;;;;5028704;28;19959;-75
2023/05/14 03:32:11;;;;;;;;;;;11.40;99.90;;;;;;5011057;28;19916;-75
2023/05/14 03:34:39;;;;;;;;;;;11.30;99.90;;;;;;5032908;28;20358;-75
2023/05/14 03:37:05;;;;;;;;;;;11.40;99.90;;;;;;5010315;28;19996;-75
2023/05/14 03:39:35;;;;;;;;;;;11.50;99.90;;;;;;5008039;28;19912;-75
2023/05/14 03:42:00;;;;;;;;;;;11.50;99.90;;;;;;5020810;28;20842;-75
2023/05/14 03:44:28;;;;;;;;;;;11.50;99.90;;;;;;5011278;28;19910;-75
2023/05/14 03:46:59;;;;;;;;;;;11.50;99.90;;;;;;5021005;28;19992;-75
2023/05/14 03:49:26;;;;;;;;;;;11.50;99.90;;;;;;5000236;28;19996;-75
2023/05/14 03:51:52;;;;;;;;;;;11.30;99.90;;;;;;5014562;28;19963;-75
2023/05/14 03:54:18;;;;;;;;;;;11.30;99.90;;;;;;5010224;28;20416;-75
2023/05/14 03:56:45;;;;;;;;;;;11.30;99.90;;;;;;5006473;28;19909;-75
2023/05/14 03:59:10;;;;;;;;;;;11.10;99.90;;;;;;5010241;28;19909;-75
2023/05/14 04:01:37;;;;;;;;;;;11.10;99.90;;;;;;5016436;28;19913;-75
2023/05/14 04:04:03;;;;;;;;;;;11.10;99.90;;;;;;5008638;28;19909;-75
2023/05/14 04:06:33;;;;;;;;;;;11.10;99.90;;;;;;5019393;28;19912;-75
2023/05/14 04:09:09;;;;;;;;;;;11.00;99.90;;;;;;5011298;28;19917;-75
2023/05/14 04:11:35;;;;;;;;;;;11.00;99.90;;;;;;5006644;28;19909;-76
2023/05/14 04:14:01;;;;;;;;;;;11.10;99.90;;;;;;5026855;28;19912;-75
2023/05/14 04:16:27;;;;;;;;;;;11.10;99.90;;;;;;5011914;28;20441;-75
2023/05/14 04:18:53;;;;;;;;;;;11.10;99.90;;;;;;5013220;28;19909;-75
2023/05/14 04:21:24;;;;;;;;;;;11.00;99.90;;;;;;5007721;28;19916;-76
2023/05/14 04:23:56;;;;;;;;;;;11.00;99.90;;;;;;5007253;28;19909;-75
2023/05/14 04:26:23;;;;;;;;;;;11.10;99.90;;;;;;5031729;28;20617;-75
2023/05/14 04:28:49;;;;;;;;;;;11.10;99.90;;;;;;5005657;28;19974;-75
2023/05/14 04:31:14;;;;;;;;;;;11.00;99.90;;;;;;5014323;28;19909;-75
2023/05/14 04:33:41;;;;;;;;;;;11.00;99.90;;;;;;5009277;28;19905;-75
2023/05/14 04:36:07;;;;;;;;;;;11.10;99.90;;;;;;5031771;28;19948;-75
2023/05/14 04:38:32;;;;;;;;;;;11.10;99.90;;;;;;5015572;28;19909;-75
2023/05/14 04:41:06;;;;;;;;;;;11.10;99.90;;;;;;5005887;28;19914;-75
2023/05/14 04:43:32;;;;;;;;;;;11.00;99.90;;;;;;5009169;28;19917;-75
2023/05/14 04:46:02;;;;;;;;;;;10.90;99.90;;;;;;5010269;28;19913;-75
2023/05/14 04:48:31;;;;;;;;;;;10.90;99.90;;;;;;5015695;28;19983;-75
2023/05/14 04:50:56;;;;;;;;;;;10.90;99.90;;;;;;5012233;28;19913;-76
2023/05/14 04:53:23;;;;;;;;;;;10.80;99.90;;;;;;5019841;28;19909;-75
2023/05/14 04:55:50;;;;;;;;;;;10.90;99.90;;;;;;5029278;28;19913;-75
2023/05/14 04:58:17;;;;;;;;;;;10.90;99.90;;;;;;5020856;28;19909;-75
2023/05/14 05:00:43;;;;;;;;;;;10.90;99.90;;;;;;5007184;28;19967;-75
2023/05/14 05:03:08;;;;;;;;;;;10.80;99.90;;;;;;5028138;28;19966;-75
2023/05/14 05:05:34;;;;;;;;;;;10.80;99.90;;;;;;5011324;28;19957;-75
2023/05/14 05:08:01;;;;;;;;;;;10.80;99.90;;;;;;5011418;28;19912;-75
2023/05/14 05:10:26;;;;;;;;;;;10.90;99.90;;;;;;5006518;28;19919;-75
2023/05/14 05:12:52;;;;;;;;;;;10.90;99.90;;;;;;5013782;28;20004;-75
2023/05/14 05:15:26;;;;;;;;;;;10.80;99.90;;;;;;5018584;28;20368;-75
2023/05/14 05:17:56;;;;;;;;;;;10.90;99.90;;;;;;5010313;28;19915;-76
2023/05/14 05:20:24;;;;;;;;;;;11.00;99.90;;;;;;5012492;28;19909;-75
2023/05/14 05:22:49;;;;;;;;;;;11.00;99.90;;;;;;5008054;28;19920;-75
2023/05/14 05:25:21;;;;;;;;;;;11.10;99.90;;;;;;5012354;28;20359;-75
2023/05/14 05:27:49;;;;;;;;;;;11.20;99.90;;;;;;5028676;28;20003;-75
2023/05/14 05:30:20;;;;;;;;;;;11.10;99.90;;;;;;5005187;28;19916;-75
2023/05/14 05:32:46;;;;;;;;;;;11.10;99.90;;;;;;5027582;28;20568;-75
2023/05/14 05:35:16;;;;;;;;;;;11.10;99.90;;;;;;5009211;28;19988;-75
2023/05/14 05:37:44;;;;;;;;;;;11.10;99.90;;;;;;5023937;28;19936;-75
2023/05/14 05:40:09;;;;;;;;;;;11.10;99.90;;;;;;5038432;28;19905;-75
2023/05/14 05:42:35;;;;;;;;;;;11.20;99.90;;;;;;5004577;28;19974;-76
2023/05/14 05:45:02;;;;;;;;;;;11.20;99.90;;;;;;5012180;28;19951;-75
2023/05/14 05:47:31;;;;;;;;;;;11.10;99.90;;;;;;5010231;28;19913;-76
2023/05/14 05:50:03;;;;;;;;;;;11.20;99.90;;;;;;5010703;28;20004;-75
2023/05/14 05:52:30;;;;;;;;;;;11.20;99.90;;;;;;5015679;28;19971;-75
2023/05/14 05:54:56;;;;;;;;;;;11.30;99.90;;;;;;5010674;28;19920;-75
2023/05/14 05:57:30;;;;;;;;;;;11.10;99.90;;;;;;5010944;28;19909;-76
2023/05/14 05:59:55;;;;;;;;;;;11.30;99.90;;;;;;5012091;28;20322;-75
2023/05/14 06:02:22;;;;;;;;;;;11.10;99.90;;;;;;5018711;28;19905;-75
2023/05/14 06:04:47;;;;;;;;;;;11.20;99.90;;;;;;5007749;28;19952;-76
2023/05/14 06:07:19;;;;;;;;;;;11.20;99.90;;;;;;5013775;28;20721;-75
2023/05/14 06:09:45;;;;;;;;;;;11.10;99.90;;;;;;5021534;28;19991;-75
2023/05/14 06:12:11;;;;;;;;;;;11.10;99.90;;;;;;5004163;28;19956;-75
2023/05/14 06:14:37;;;;;;;;;;;11.10;99.90;;;;;;5013112;28;19994;-75
2023/05/14 06:17:03;;;;;;;;;;;11.10;99.90;;;;;;5029166;28;19940;-75
2023/05/14 06:19:28;;;;;;;;;;;11.10;99.90;;;;;;5017896;28;19914;-75
2023/05/14 06:21:55;;;;;;;;;;;10.90;99.90;;;;;;5016340;28;20433;-75
2023/05/14 06:24:20;;;;;;;;;;;10.90;99.90;;;;;;5008781;28;20270;-76
2023/05/14 06:26:48;;;;;;;;;;;10.80;99.90;;;;;;5015010;28;19909;-77
2023/05/14 06:29:13;;;;;;;;;;;10.80;99.90;;;;;;5011268;28;19913;-76
2023/05/14 06:31:39;;;;;;;;;;;10.80;99.90;;;;;;5007687;28;19908;-75
2023/05/14 06:34:05;;;;;;;;;;;10.80;99.90;;;;;;5014512;28;19911;-76
2023/05/14 06:36:33;;;;;;;;;;;10.80;99.90;;;;;;5011988;28;19994;-75
2023/05/14 06:39:00;;;;;;;;;;;10.80;99.90;;;;;;5013155;28;19913;-76
2023/05/14 06:41:25;;;;;;;;;;;10.90;99.90;;;;;;5008450;28;20597;-76
2023/05/14 06:43:51;;;;;;;;;;;10.70;99.90;;;;;;5013200;28;19913;-75
2023/05/14 06:46:20;;;;;;;;;;;10.70;99.90;;;;;;5017588;28;19912;-76
2023/05/14 06:48:45;;;;;;;;;;;10.70;99.90;;;;;;5008132;28;19909;-75
2023/05/14 06:51:13;;;;;;;;;;;10.70;99.90;;;;;;5010738;28;19916;-75
2023/05/14 06:53:40;;;;;;;;;;;10.70;99.90;;;;;;5012891;28;19998;-75
2023/05/14 06:56:06;;;;;;;;;;;10.70;99.90;;;;;;5004429;28;19916;-75
2023/05/14 06:58:32;;;;;;;;;;;10.60;99.90;;;;;;5028824;28;19933;-75
2023/05/14 07:00:59;;;;;;;;;;;10.60;99.90;;;;;;5015409;28;19952;-75
2023/05/14 07:03:24;;;;;;;;;;;10.60;99.90;;;;;;5033123;28;19916;-75
2023/05/14 07:05:50;;;;;;;;;;;10.50;99.90;;;;;;5009966;28;19909;-75
2023/05/14 07:08:18;;;;;;;;;;;10.40;99.90;;;;;;5010885;28;19909;-75
2023/05/14 07:10:43;;;;;;;;;;;10.40;99.90;;;;;;5013429;28;19913;-75
2023/05/14 07:13:09;;;;;;;;;;;10.20;99.90;;;;;;5013394;28;19912;-76
2023/05/14 07:15:37;;;;;;;;;;;10.10;99.90;;;;;;5018239;28;19963;-75
2023/05/14 07:18:02;;;;;;;;;;;10.10;99.90;;;;;;4999170;28;19905;-75
2023/05/14 07:20:28;;;;;;;;;;;10.10;99.90;;;;;;5020756;28;19919;-75
2023/05/14 07:22:54;;;;;;;;;;;10.10;99.90;;;;;;5012045;28;19909;-75
2023/05/14 07:25:21;;;;;;;;;;;10.10;99.90;;;;;;5010674;28;19921;-75
2023/05/14 07:27:48;;;;;;;;;;;10.00;99.90;;;;;;5008683;28;19911;-75
2023/05/14 07:30:15;;;;;;;;;;;10.00;99.90;;;;;;5014624;28;20012;-75
2023/05/14 07:32:41;;;;;;;;;;;10.00;99.90;;;;;;5013207;28;19905;-75
2023/05/14 07:35:06;;;;;;;;;;;10.00;99.90;;;;;;5013798;28;19905;-75
2023/05/14 07:37:32;;;;;;;;;;;10.00;99.90;;;;;;5010597;28;19919;-75
2023/05/14 07:40:04;;;;;;;;;;;9.90;99.90;;;;;;5009116;28;19920;-75
2023/05/14 07:42:30;;;;;;;;;;;9.90;99.90;;;;;;5009500;28;19920;-75
2023/05/14 07:45:04;;;;;;;;;;;10.00;99.90;;;;;;5021070;28;19936;-75
2023/05/14 07:47:31;;;;;;;;;;;9.90;99.90;;;;;;5005928;28;20087;-75
2023/05/14 07:49:57;;;;;;;;;;;9.90;99.90;;;;;;5011331;28;19918;-75
2023/05/14 07:52:26;;;;;;;;;;;9.90;99.90;;;;;;5014144;28;19923;-74
2023/05/14 07:54:52;;;;;;;;;;;9.90;99.90;;;;;;5015532;28;20378;-76
2023/05/14 07:57:20;;;;;;;;;;;9.90;99.90;;;;;;5014909;28;19967;-76
2023/05/14 07:59:49;;;;;;;;;;;9.90;99.90;;;;;;5013973;28;19913;-75
2023/05/14 08:02:15;;;;;;;;;;;9.80;99.90;;;;;;5012667;28;19905;-75
2023/05/14 08:04:42;;;;;;;;;;;9.90;99.90;;;;;;5010236;28;19908;-76
2023/05/14 08:07:08;;;;;;;;;;;10.00;99.90;;;;;;5010290;28;19956;-73
2023/05/14 08:09:33;;;;;;;;;;;10.10;99.90;;;;;;5000844;28;20263;-72
2023/05/14 08:11:59;;;;;;;;;;;10.00;99.90;;;;;;5005678;28;19920;-73
2023/05/14 08:14:26;;;;;;;;;;;10.00;99.90;;;;;;5026951;28;20244;-72
2023/05/14 08:16:52;;;;;;;;;;;10.00;99.90;;;;;;5004581;28;19916;-72
2023/05/14 08:19:17;;;;;;;;;;;10.00;99.90;;;;;;5009822;28;19909;-72
2023/05/14 08:21:43;;;;;;;;;;;9.90;99.90;;;;;;5009113;28;19936;-73
2023/05/14 08:24:10;;;;;;;;;;;9.90;99.90;;;;;;5009811;28;19909;-72
2023/05/14 08:26:35;;;;;;;;;;;10.00;99.90;;;;;;5010487;28;20574;-73
2023/05/14 08:29:01;;;;;;;;;;;10.00;99.90;;;;;;5007467;28;19913;-73
2023/05/14 08:31:26;;;;;;;;;;;10.00;99.90;;;;;;5011065;28;19909;-73
2023/05/14 08:33:52;;;;;;;;;;;9.80;99.90;;;;;;5023695;28;19913;-73
2023/05/14 08:36:17;;;;;;;;;;;9.90;99.90;;;;;;5026352;28;19963;-73
2023/05/14 08:38:44;;;;;;;;;;;9.90;99.90;;;;;;5006153;28;20283;-73
2023/05/14 08:41:11;;;;;;;;;;;9.90;99.90;;;;;;5006098;28;19984;-73
2023/05/14 08:43:40;;;;;;;;;;;10.00;99.90;;;;;;5002226;28;19921;-73
2023/05/14 08:46:06;;;;;;;;;;;10.00;99.90;;;;;;5005893;28;19996;-73
2023/05/14 08:48:33;;;;;;;;;;;10.00;99.90;;;;;;5010639;28;20315;-73
2023/05/14 08:50:59;;;;;;;;;;;10.00;99.90;;;;;;5006338;28;19924;-72
2023/05/14 08:53:24;;;;;;;;;;;10.00;99.90;;;;;;5011572;28;19916;-73
2023/05/14 08:55:52;;;;;;;;;;;10.10;99.90;;;;;;5004459;28;19909;-73
2023/05/14 08:58:18;;;;;;;;;;;10.10;99.90;;;;;;5010234;28;20739;-73
2023/05/14 09:00:44;;;;;;;;;;;10.20;99.90;;;;;;4998267;28;19909;-74
2023/05/14 09:03:10;;;;;;;;;;;10.00;99.90;;;;;;5026672;28;19992;-73
2023/05/14 09:05:35;;;;;;;;;;;10.00;99.90;;;;;;5001020;28;19905;-73
2023/05/14 09:08:01;;;;;;;;;;;10.00;99.90;;;;;;5001543;28;19956;-74
2023/05/14 09:10:27;;;;;;;;;;;10.00;99.90;;;;;;5005699;28;19921;-73
2023/05/14 09:12:52;;;;;;;;;;;10.00;99.90;;;;;;5007783;28;19909;-73
2023/05/14 09:15:18;;;;;;;;;;;10.00;99.90;;;;;;5011856;28;20303;-73
2023/05/14 09:17:46;;;;;;;;;;;10.10;99.90;;;;;;5010029;28;20778;-74
2023/05/14 09:20:13;;;;;;;;;;;10.10;99.90;;;;;;5009508;28;19908;-73
2023/05/14 09:22:39;;;;;;;;;;;10.10;99.90;;;;;;5002418;28;19906;-74
2023/05/14 09:25:08;;;;;;;;;;;10.10;99.90;;;;;;5007204;28;19915;-73
2023/05/14 09:27:34;;;;;;;;;;;10.20;99.90;;;;;;5008089;28;19915;-73
2023/05/14 09:30:10;;;;;;;;;;;10.10;99.90;;;;;;5016495;28;20381;-73
2023/05/14 09:32:42;;;;;;;;;;;10.00;99.90;;;;;;5014806;28;19905;-73
2023/05/14 09:35:13;;;;;;;;;;;10.00;99.90;;;;;;5007862;28;19905;-73
2023/05/14 09:37:44;;;;;;;;;;;10.00;99.90;;;;;;5011551;28;19905;-72
2023/05/14 09:40:10;;;;;;;;;;;10.10;99.90;;;;;;5027300;28;19916;-72
2023/05/14 09:42:36;;;;;;;;;;;10.10;99.90;;;;;;5013092;28;20027;-73
2023/05/14 09:45:03;;;;;;;;;;;10.20;99.90;;;;;;5024932;28;20043;-72
2023/05/14 09:47:31;;;;;;;;;;;10.20;99.90;;;;;;5021785;28;19971;-73
2023/05/14 09:49:57;;;;;;;;;;;10.20;99.90;;;;;;5015379;28;20094;-73
2023/05/14 09:52:23;;;;;;;;;;;10.20;99.90;;;;;;5015102;28;20408;-73
2023/05/14 09:54:52;;;;;;;;;;;10.20;99.90;;;;;;5031056;28;20347;-72
2023/05/14 09:57:18;;;;;;;;;;;10.30;99.90;;;;;;5018382;28;19904;-72
2023/05/14 09:59:43;;;;;;;;;;;10.20;99.90;;;;;;5018244;28;19959;-72
2023/05/14 10:02:18;;;;;;;;;;;10.20;99.90;;;;;;5023623;28;19905;-72
2023/05/14 10:04:44;;;;;;;;;;;10.20;99.90;;;;;;5018367;28;19905;-72
2023/05/14 10:07:09;;;;;;;;;;;10.20;99.90;;;;;;5040089;28;19909;-72
2023/05/14 10:09:37;;;;;;;;;;;10.20;99.90;;;;;;5003132;28;19917;-72
2023/05/14 10:12:03;;;;;;;;;;;10.20;99.90;;;;;;5031238;28;19905;-72
2023/05/14 10:14:34;;;;;;;;;;;10.20;99.90;;;;;;5017372;28;19920;-72
2023/05/14 10:17:00;;;;;;;;;;;10.20;99.90;;;;;;5020189;28;19912;-72
2023/05/14 10:19:26;;;;;;;;;;;10.20;99.90;;;;;;5018877;28;20258;-72
2023/05/14 10:21:59;;;;;;;;;;;10.20;99.90;;;;;;5022522;28;19908;-72
2023/05/14 10:24:25;;;;;;;;;;;10.20;99.90;;;;;;5020205;28;19905;-72
2023/05/14 10:26:51;;;;;;;;;;;10.10;99.90;;;;;;5014391;28;20271;-72
2023/05/14 10:29:17;;;;;;;;;;;10.20;99.90;;;;;;5019578;28;19968;-72
2023/05/14 10:31:46;;;;;;;;;;;10.20;99.90;;;;;;5018972;28;19909;-73
2023/05/14 10:34:31;;;;;;;;;;;10.20;99.90;;;;;;5021339;28;19905;-72
2023/05/14 10:37:00;;;;;;;;;;;10.30;99.90;;;;;;5037656;28;19913;-73
2023/05/14 10:39:58;;;;;;;;;;;10.40;99.90;;;;;;5014093;28;20270;-72
2023/05/14 10:42:31;;;;;;;;;;;10.40;99.90;;;;;;4977447;28;20336;-72
2023/05/14 10:45:00;;;;;;;;;;;10.40;99.90;;;;;;5034823;28;20290;-72
2023/05/14 10:47:27;;;;;;;;;;;10.40;99.90;;;;;;5004528;28;20339;-72
2023/05/14 10:49:54;;;;;;;;;;;10.40;99.90;;;;;;5017163;28;19917;-72
2023/05/14 10:52:20;;;;;;;;;;;10.50;99.90;;;;;;5023698;28;20283;-71
2023/05/14 10:54:49;;;;;;;;;;;10.50;99.90;;;;;;5009679;28;19905;-70
2023/05/14 10:57:16;;;;;;;;;;;10.50;99.90;;;;;;5015434;28;20338;-71
2023/05/14 10:59:43;;;;;;;;;;;10.50;99.90;;;;;;5010355;28;19905;-72
2023/05/14 11:02:19;;;;;;;;;;;10.40;99.90;;;;;;5010399;28;20019;-72
2023/05/14 11:04:53;;;;;;;;;;;10.40;99.90;;;;;;5009770;28;20417;-72
2023/05/14 11:07:21;;;;;;;;;;;10.50;99.90;;;;;;5013215;28;19918;-72
2023/05/14 11:09:47;;;;;;;;;;;10.50;99.90;;;;;;5008868;28;19932;-72
2023/05/14 11:12:12;;;;;;;;;;;10.60;99.90;;;;;;5016887;28;19909;-74
2023/05/14 11:14:40;;;;;;;;;;;10.60;99.90;;;;;;5004091;28;20004;-73
2023/05/14 11:17:07;;;;;;;;;;;10.70;99.90;;;;;;5003345;28;19909;-74
2023/05/14 11:19:32;;;;;;;;;;;10.60;99.90;;;;;;5006762;28;19928;-74
2023/05/14 11:22:00;;;;;;;;;;;10.70;99.90;;;;;;5005392;28;20374;-73
2023/05/14 11:24:25;;;;;;;;;;;10.70;99.90;;;;;;5011860;28;19954;-75
2023/05/14 11:26:54;;;;;;;;;;;10.70;99.90;;;;;;5006735;28;19935;-74
2023/05/14 11:29:20;;;;;;;;;;;10.80;99.90;;;;;;5009519;28;19910;-74
2023/05/14 11:31:45;;;;;;;;;;;10.80;99.90;;;;;;5005695;28;20240;-73
2023/05/14 11:34:12;;;;;;;;;;;10.80;99.90;;;;;;4998846;28;19949;-74
2023/05/14 11:36:38;;;;;;;;;;;10.90;99.90;;;;;;4996111;28;19905;-73
2023/05/14 11:39:03;;;;;;;;;;;10.80;99.90;;;;;;5001593;28;19909;-74
2023/05/14 11:41:30;;;;;;;;;;;10.80;99.90;;;;;;5007627;28;19959;-74
2023/05/14 11:44:02;;;;;;;;;;;10.80;99.90;;;;;;5011474;28;19925;-74
2023/05/14 11:46:29;;;;;;;;;;;10.90;99.90;;;;;;5005530;28;20038;-74
2023/05/14 11:48:55;;;;;;;;;;;10.80;99.90;;;;;;5002819;28;19905;-74
2023/05/14 11:51:21;;;;;;;;;;;10.90;99.90;;;;;;5003424;28;20508;-73
2023/05/14 11:53:48;;;;;;;;;;;10.90;99.90;;;;;;5024653;28;19959;-73
2023/05/14 11:56:14;;;;;;;;;;;11.00;99.90;;;;;;5005513;28;20413;-71
2023/05/14 11:58:46;;;;;;;;;;;11.00;99.90;;;;;;5001136;28;19909;-72
2023/05/14 12:01:12;;;;;;;;;;;11.20;99.90;;;;;;5009707;28;20019;-72
2023/05/14 12:03:38;;;;;;;;;;;11.20;99.90;;;;;;4997261;28;20567;-71
2023/05/14 12:06:05;;;;;;;;;;;11.20;99.90;;;;;;5008824;28;19944;-73
2023/05/14 12:08:36;;;;;;;;;;;11.30;99.90;;;;;;5003629;28;19909;-71
2023/05/14 12:11:01;;;;;;;;;;;11.20;99.90;;;;;;5005868;28;20358;-73
2023/05/14 12:13:29;;;;;;;;;;;11.20;99.90;;;;;;5012479;28;19923;-72
2023/05/14 12:15:56;;;;;;;;;;;11.20;99.90;;;;;;5002147;28;20405;-73
2023/05/14 12:18:23;;;;;;;;;;;11.20;99.90;;;;;;5008284;28;19913;-74
2023/05/14 12:20:52;;;;;;;;;;;11.20;99.90;;;;;;5013053;28;20297;-75
2023/05/14 12:23:30;;;;;;;;;;;11.10;99.90;;;;;;5002383;28;19905;-75
2023/05/14 12:26:06;;;;;;;;;;;11.10;99.90;;;;;;5012236;28;19909;-74
2023/05/14 12:28:36;;;;;;;;;;;11.10;99.90;;;;;;5016341;28;19905;-75
2023/05/14 12:31:02;;;;;;;;;;;11.10;99.90;;;;;;5007778;28;20278;-75
2023/05/14 12:33:36;;;;;;;;;;;11.10;99.90;;;;;;5004835;28;20015;-75
2023/05/14 12:36:02;;;;;;;;;;;11.10;99.90;;;;;;5013438;28;20038;-74
2023/05/14 12:38:31;;;;;;;;;;;11.20;99.90;;;;;;5004890;28;20066;-74
2023/05/14 12:41:00;;;;;;;;;;;11.20;99.90;;;;;;5009149;28;19920;-75
2023/05/14 12:43:30;;;;;;;;;;;11.40;99.90;;;;;;5001638;28;19936;-75
2023/05/14 12:45:56;;;;;;;;;;;11.40;99.90;;;;;;5007417;28;19963;-74
2023/05/14 12:48:22;;;;;;;;;;;11.50;99.90;;;;;;4998771;28;19913;-75
2023/05/14 12:50:48;;;;;;;;;;;11.50;99.90;;;;;;5008462;28;19910;-75
2023/05/14 12:53:15;;;;;;;;;;;11.40;99.90;;;;;;5012334;28;19920;-75
2023/05/14 12:55:40;;;;;;;;;;;11.30;99.90;;;;;;5005155;28;19905;-75
2023/05/14 12:58:06;;;;;;;;;;;11.30;99.90;;;;;;5004827;28;19916;-66
2023/05/14 13:00:32;;;;;;;;;;;11.40;99.90;;;;;;5022277;28;19905;-74
2023/05/14 13:03:00;;;;;;;;;;;11.30;99.90;;;;;;5001442;28;19917;-74
2023/05/14 13:05:27;;;;;;;;;;;11.30;99.90;;;;;;5005709;28;19905;-74
2023/05/14 13:07:53;;;;;;;;;;;11.30;99.90;;;;;;5020762;28;19909;-76
2023/05/14 13:10:19;;;;;;;;;;;11.30;99.90;;;;;;5014124;28;19982;-76
2023/05/14 13:12:45;;;;;;;;;;;11.30;99.90;;;;;;5008724;28;19959;-75
2023/05/14 13:15:11;;;;;;;;;;;11.20;99.90;;;;;;5010159;28;19909;-75
2023/05/14 13:17:36;;;;;;;;;;;11.20;99.90;;;;;;5002554;28;19913;-75
2023/05/14 13:20:05;;;;;;;;;;;11.10;99.90;;;;;;5007068;28;19960;-75
2023/05/14 13:22:32;;;;;;;;;;;11.20;99.90;;;;;;5011997;28;20141;-74
2023/05/14 13:24:58;;;;;;;;;;;11.30;99.90;;;;;;5019203;28;20050;-76
2023/05/14 13:27:29;;;;;;;;;;;11.30;99.90;;;;;;5006138;28;20355;-75
2023/05/14 13:29:55;;;;;;;;;;;11.30;99.90;;;;;;5005229;28;19917;-74
2023/05/14 13:32:21;;;;;;;;;;;11.30;99.90;;;;;;5011359;28;19905;-74
2023/05/14 13:34:47;;;;;;;;;;;11.30;99.90;;;;;;5003736;28;19912;-74
2023/05/14 13:37:14;;;;;;;;;;;11.30;99.90;;;;;;5005901;28;19919;-75
2023/05/14 13:39:41;;;;;;;;;;;11.50;99.90;;;;;;5007637;28;20354;-74
2023/05/14 13:42:08;;;;;;;;;;;11.50;99.90;;;;;;5002727;28;19921;-74
2023/05/14 13:44:35;;;;;;;;;;;11.60;99.90;;;;;;5007845;28;20617;-74
2023/05/14 13:47:00;;;;;;;;;;;11.70;99.90;;;;;;5003472;28;19906;-75
2023/05/14 13:49:26;;;;;;;;;;;11.70;99.90;;;;;;5013378;28;19950;-75
2023/05/14 13:51:52;;;;;;;;;;;11.70;99.90;;;;;;5008515;28;19910;-75
2023/05/14 13:54:19;;;;;;;;;;;11.60;99.90;;;;;;5012551;28;19905;-74
2023/05/14 13:56:44;;;;;;;;;;;11.60;99.90;;;;;;5013444;28;19913;-74
2023/05/14 13:59:10;;;;;;;;;;;11.60;99.90;;;;;;5007374;28;19905;-75
2023/05/14 14:01:36;;;;;;;;;;;11.60;99.90;;;;;;5011215;28;19927;-75
2023/05/14 14:04:02;;;;;;;;;;;11.60;99.90;;;;;;5017524;28;19905;-77
2023/05/14 14:06:31;;;;;;;;;;;11.60;99.90;;;;;;5019514;28;20394;-75
2023/05/14 14:08:57;;;;;;;;;;;11.50;99.90;;;;;;5012474;28;20935;-74
2023/05/14 14:11:24;;;;;;;;;;;11.50;99.90;;;;;;5017402;28;19954;-74
2023/05/14 14:13:50;;;;;;;;;;;11.40;99.90;;;;;;5007828;28;19910;-74
2023/05/14 14:16:18;;;;;;;;;;;11.30;99.90;;;;;;5027233;28;19905;-73
2023/05/14 14:18:43;;;;;;;;;;;11.30;99.90;;;;;;5007469;28;19917;-74
2023/05/14 14:21:10;;;;;;;;;;;11.20;99.90;;;;;;5008022;28;19928;-74